Milton, Louisiana
Current Conditions -  °F | °C
As of 2:35 AM on Thursday 18 Dec 2014 (Local Time) from KIYA Reporting Station
Clear Clear  
Wind Chill: 47°   Ceiling: Unl
Heat Index: 47°   Visibility: 10mi
Dew Point: 45°   Wind: 3mph
Humidity: 90%   Direction: 100°E
Pressure: 30.16"   Gusts: NA
Location:  30.1°N, 92.08°W
Report Text: KIYA 180835Z AUTO 10003KT 10SM CLR 09/07 A3016 RMK AO2 T00860071 TSNO
Loading
Personal Weather Stations






























Interactive Weather Map New forecast layout! Learn more

10-Day Weather Forecast

Advertisements
Track Severe Weather on mobile